Time,TemperatureF,DewpointF,PressureIn,WindDirection,WindDirectionDegrees,WindSpeedMPH,WindSpeedGustMPH,Humidity,HourlyPrecipIn,Conditions,Clouds,dailyrainin,SolarRadiationWatts/m^2,SoftwareType,DateUTC
2013-06-18 00:10:00,60.1,59.0,29.83,NW,305,4.0,7.0,96,0.00,,,0.00,0,weatherlink.com 1.10,2013-06-18 04:10:00,
2013-06-18 00:25:00,60.4,59.0,29.83,NW,306,0.0,7.0,96,0.00,,,0.00,0,weatherlink.com 1.10,2013-06-18 04:25:00,
2013-06-18 00:40:00,59.9,59.0,29.83,NW,306,4.0,4.0,96,0.00,,,0.00,0,weatherlink.com 1.10,2013-06-18 04:40:00,
2013-06-18 00:55:00,59.9,59.0,29.83,NW,306,0.0,0.0,96,0.00,,,0.00,0,weatherlink.com 1.10,2013-06-18 04:55:00,
2013-06-18 01:10:00,59.8,59.0,29.83,NW,306,0.0,2.0,96,0.00,,,0.00,0,weatherlink.com 1.10,2013-06-18 05:10:00,
2013-06-18 01:25:00,59.0,58.0,29.83,NW,306,0.0,0.0,96,0.00,,,0.00,0,weatherlink.com 1.10,2013-06-18 05:25:00,
2013-06-18 01:41:00,58.6,58.0,29.82,NW,306,0.0,0.0,97,0.00,,,0.00,0,weatherlink.com 1.10,2013-06-18 05:41:00,
2013-06-18 01:55:00,58.9,58.0,29.83,NW,306,0.0,0.0,97,0.00,,,0.00,0,weatherlink.com 1.10,2013-06-18 05:55:00,
2013-06-18 02:10:00,58.9,58.0,29.83,NW,306,0.0,2.0,97,0.00,,,0.00,0,weatherlink.com 1.10,2013-06-18 06:10:00,
2013-06-18 02:25:00,58.6,58.0,29.83,NW,306,0.0,0.0,97,0.00,,,0.00,0,weatherlink.com 1.10,2013-06-18 06:25:00,
2013-06-18 02:41:00,58.3,58.0,29.82,NW,306,0.0,0.0,97,0.00,,,0.00,0,weatherlink.com 1.10,2013-06-18 06:41:00,
2013-06-18 02:56:00,58.3,58.0,29.82,NW,306,0.0,0.0,98,0.00,,,0.00,0,weatherlink.com 1.10,2013-06-18 06:56:00,
2013-06-18 03:11:00,58.3,58.0,29.82,NW,306,0.0,5.0,98,0.00,,,0.00,0,weatherlink.com 1.10,2013-06-18 07:11:00,
2013-06-18 03:26:00,58.4,58.0,29.83,NW,306,0.0,6.0,98,0.00,,,0.00,0,weatherlink.com 1.10,2013-06-18 07:26:00,
2013-06-18 03:41:00,58.3,58.0,29.83,NW,306,0.0,4.0,98,0.00,,,0.00,0,weatherlink.com 1.10,2013-06-18 07:41:00,
2013-06-18 03:56:00,58.0,58.0,29.82,NW,306,0.0,2.0,99,0.00,,,0.00,0,weatherlink.com 1.10,2013-06-18 07:56:00,
2013-06-18 04:11:00,57.8,58.0,29.83,NW,306,2.0,2.0,99,0.00,,,0.00,0,weatherlink.com 1.10,2013-06-18 08:11:00,
2013-06-18 04:26:00,57.5,57.0,29.82,NW,306,0.0,0.0,99,0.00,,,0.00,0,weatherlink.com 1.10,2013-06-18 08:26:00,
2013-06-18 04:41:00,57.3,57.0,29.83,NW,306,2.0,4.0,99,0.00,,,0.00,0,weatherlink.com 1.10,2013-06-18 08:41:00,
2013-06-18 04:56:00,57.2,57.0,29.83,NW,314,0.0,7.0,99,0.00,,,0.00,0,weatherlink.com 1.10,2013-06-18 08:56:00,
2013-06-18 05:11:00,57.2,57.0,29.83,NW,317,0.0,4.0,99,0.00,,,0.00,5,weatherlink.com 1.10,2013-06-18 09:11:00,
2013-06-18 05:26:00,57.2,57.0,29.83,NW,317,0.0,5.0,99,0.00,,,0.00,18,weatherlink.com 1.10,2013-06-18 09:26:00,
2013-06-18 05:41:00,56.7,57.0,29.84,NW,317,0.0,0.0,99,0.00,,,0.00,30,weatherlink.com 1.10,2013-06-18 09:41:00,
2013-06-18 05:56:00,56.9,57.0,29.85,NW,317,0.0,0.0,100,0.00,,,0.00,37,weatherlink.com 1.10,2013-06-18 09:56:00,
2013-06-18 06:11:00,57.2,57.0,29.84,NW,317,0.0,5.0,100,0.00,,,0.00,54,weatherlink.com 1.10,2013-06-18 10:11:00,
2013-06-18 06:26:00,57.5,58.0,29.85,NW,317,0.0,0.0,100,0.00,,,0.00,76,weatherlink.com 1.10,2013-06-18 10:26:00,
2013-06-18 06:41:00,57.8,58.0,29.85,NW,317,0.0,0.0,100,0.00,,,0.00,83,weatherlink.com 1.10,2013-06-18 10:41:00,
2013-06-18 06:56:00,58.0,58.0,29.85,NW,317,0.0,4.0,100,0.00,,,0.00,90,weatherlink.com 1.10,2013-06-18 10:56:00,
2013-06-18 07:11:00,58.6,58.0,29.86,NW,317,0.0,1.0,99,0.00,,,0.00,128,weatherlink.com 1.10,2013-06-18 11:11:00,
2013-06-18 07:26:00,59.0,57.0,29.86,NW,317,0.0,0.0,94,0.00,,,0.00,135,weatherlink.com 1.10,2013-06-18 11:26:00,
2013-06-18 07:41:00,59.8,56.0,29.86,NNW,341,0.0,4.0,86,0.00,,,0.00,181,weatherlink.com 1.10,2013-06-18 11:41:00,
2013-06-18 07:56:00,61.0,56.0,29.86,NNW,341,4.0,5.0,83,0.00,,,0.00,230,weatherlink.com 1.10,2013-06-18 11:56:00,
2013-06-18 08:11:00,61.8,57.0,29.86,North,355,1.0,9.0,83,0.00,,,0.00,232,weatherlink.com 1.10,2013-06-18 12:11:00,
2013-06-18 08:26:00,62.3,57.0,29.87,North,355,0.0,8.0,83,0.00,,,0.00,309,weatherlink.com 1.10,2013-06-18 12:26:00,
2013-06-18 08:41:00,62.3,56.0,29.87,North,350,5.0,9.0,81,0.00,,,0.00,373,weatherlink.com 1.10,2013-06-18 12:41:00,
2013-06-18 08:56:00,62.4,57.0,29.88,North,355,0.0,8.0,83,0.00,,,0.00,197,weatherlink.com 1.10,2013-06-18 12:56:00,
2013-06-18 09:11:00,63.1,57.0,29.88,NNW,331,4.0,6.0,79,0.00,,,0.00,374,weatherlink.com 1.10,2013-06-18 13:11:00,
2013-06-18 09:26:00,63.1,57.0,29.88,North,-999,0.0,8.0,81,0.00,,,0.00,313,weatherlink.com 1.10,2013-06-18 13:26:00,
2013-06-18 09:41:00,63.7,57.0,29.88,NW,311,1.0,10.0,80,0.00,,,0.00,360,weatherlink.com 1.10,2013-06-18 13:41:00,
2013-06-18 09:56:00,63.4,57.0,29.88,NNW,344,0.0,7.0,80,0.00,,,0.00,188,weatherlink.com 1.10,2013-06-18 13:56:00,
2013-06-18 10:11:00,62.9,56.0,29.88,NNW,344,0.0,3.0,79,0.00,,,0.00,144,weatherlink.com 1.10,2013-06-18 14:11:00,
2013-06-18 10:26:00,63.2,57.0,29.88,NNW,344,0.0,4.0,79,0.00,,,0.00,163,weatherlink.com 1.10,2013-06-18 14:26:00,
2013-06-18 10:41:00,62.9,57.0,29.88,NNW,344,0.0,1.0,80,0.00,,,0.00,67,weatherlink.com 1.10,2013-06-18 14:41:00,
2013-06-18 10:56:00,62.3,57.0,29.89,NNW,344,0.0,4.0,84,0.00,,,0.00,65,weatherlink.com 1.10,2013-06-18 14:56:00,
2013-06-18 11:11:00,61.0,58.0,29.88,NNE,13,0.0,0.0,90,0.01,,,0.01,62,weatherlink.com 1.10,2013-06-18 15:11:00,
2013-06-18 11:26:00,60.7,58.0,29.88,North,11,0.0,5.0,92,0.02,,,0.02,77,weatherlink.com 1.10,2013-06-18 15:26:00,
2013-06-18 11:41:00,60.5,59.0,29.89,North,11,2.0,5.0,93,0.04,,,0.04,155,weatherlink.com 1.10,2013-06-18 15:41:00,
2013-06-18 11:56:00,61.0,59.0,29.88,NNW,329,0.0,8.0,94,0.04,,,0.04,313,weatherlink.com 1.10,2013-06-18 15:56:00,
2013-06-18 12:11:00,62.0,60.0,29.90,NW,321,5.0,8.0,92,0.03,,,0.04,255,weatherlink.com 1.10,2013-06-18 16:11:00,
2013-06-18 12:26:00,61.3,58.0,29.90,NW,321,8.0,14.0,89,0.02,,,0.04,260,weatherlink.com 1.10,2013-06-18 16:26:00,
2013-06-18 12:41:00,61.0,58.0,29.90,North,350,1.0,11.0,90,0.00,,,0.04,155,weatherlink.com 1.10,2013-06-18 16:41:00,
2013-06-18 12:56:00,60.5,57.0,29.90,North,-999,0.0,12.0,87,0.00,,,0.04,172,weatherlink.com 1.10,2013-06-18 16:56:00,
2013-06-18 13:11:00,60.7,57.0,29.90,North,355,0.0,10.0,86,0.00,,,0.04,309,weatherlink.com 1.10,2013-06-18 17:11:00,
2013-06-18 13:27:00,61.5,57.0,29.89,NNW,344,1.0,11.0,84,0.00,,,0.04,139,weatherlink.com 1.10,2013-06-18 17:27:00,
2013-06-18 13:41:00,61.0,57.0,29.90,NNW,344,7.0,7.0,86,0.00,,,0.04,86,weatherlink.com 1.10,2013-06-18 17:41:00,
2013-06-18 13:56:00,60.5,57.0,29.90,NNW,342,5.0,11.0,87,0.00,,,0.04,156,weatherlink.com 1.10,2013-06-18 17:56:00,
2013-06-18 14:12:00,60.2,56.0,29.90,NE,54,0.0,11.0,87,0.00,,,0.04,153,weatherlink.com 1.10,2013-06-18 18:12:00,
2013-06-18 14:27:00,60.4,55.0,29.90,NNE,19,0.0,4.0,81,0.00,,,0.04,188,weatherlink.com 1.10,2013-06-18 18:27:00,
2013-06-18 14:42:00,60.4,55.0,29.88,NNE,20,0.0,6.0,81,0.00,,,0.04,165,weatherlink.com 1.10,2013-06-18 18:42:00,
2013-06-18 14:57:00,60.7,53.0,29.87,NW,324,7.0,7.0,76,0.00,,,0.04,281,weatherlink.com 1.10,2013-06-18 18:57:00,
2013-06-18 15:12:00,60.5,53.0,29.87,NNW,342,2.0,9.0,77,0.00,,,0.04,272,weatherlink.com 1.10,2013-06-18 19:12:00,
2013-06-18 15:27:00,61.0,54.0,29.87,NNW,327,5.0,10.0,77,0.00,,,0.04,302,weatherlink.com 1.10,2013-06-18 19:27:00,
2013-06-18 15:42:00,60.7,55.0,29.87,NNW,336,5.0,11.0,80,0.00,,,0.04,181,weatherlink.com 1.10,2013-06-18 19:42:00,
2013-06-18 15:57:00,60.1,55.0,29.87,North,350,6.0,10.0,83,0.00,,,0.04,146,weatherlink.com 1.10,2013-06-18 19:57:00,
2013-06-18 16:12:00,60.1,55.0,29.88,North,350,2.0,8.0,82,0.00,,,0.04,144,weatherlink.com 1.10,2013-06-18 20:12:00,
2013-06-18 16:27:00,59.9,53.0,29.88,NW,313,4.0,7.0,79,0.00,,,0.04,74,weatherlink.com 1.10,2013-06-18 20:27:00,
2013-06-18 16:42:00,59.8,54.0,29.89,NNW,346,0.0,6.0,80,0.00,,,0.04,63,weatherlink.com 1.10,2013-06-18 20:42:00,
2013-06-18 16:57:00,59.5,54.0,29.89,NNW,346,1.0,5.0,81,0.00,,,0.04,67,weatherlink.com 1.10,2013-06-18 20:57:00,
2013-06-18 17:12:00,59.6,53.0,29.88,NNW,346,2.0,6.0,78,0.00,,,0.04,95,weatherlink.com 1.10,2013-06-18 21:12:00,
2013-06-18 17:27:00,59.5,52.0,29.88,NNW,346,0.0,6.0,76,0.00,,,0.04,65,weatherlink.com 1.10,2013-06-18 21:27:00,
2013-06-18 17:42:00,59.3,52.0,29.89,NNW,346,0.0,2.0,77,0.00,,,0.04,83,weatherlink.com 1.10,2013-06-18 21:42:00,
2013-06-18 17:57:00,59.5,52.0,29.88,NNW,346,0.0,2.0,76,0.00,,,0.04,90,weatherlink.com 1.10,2013-06-18 21:57:00,
2013-06-18 18:12:00,59.3,52.0,29.89,NNW,346,0.0,0.0,77,0.00,,,0.04,60,weatherlink.com 1.10,2013-06-18 22:12:00,
2013-06-18 18:27:00,59.2,52.0,29.89,NNW,346,3.0,5.0,78,0.00,,,0.04,62,weatherlink.com 1.10,2013-06-18 22:27:00,
2013-06-18 18:42:00,58.9,53.0,29.89,NNW,346,0.0,5.0,80,0.00,,,0.04,53,weatherlink.com 1.10,2013-06-18 22:42:00,
2013-06-18 18:57:00,58.9,53.0,29.88,NNW,346,0.0,6.0,80,0.00,,,0.04,32,weatherlink.com 1.10,2013-06-18 22:57:00,
2013-06-18 19:12:00,59.0,54.0,29.88,NNW,346,0.0,0.0,82,0.00,,,0.04,19,weatherlink.com 1.10,2013-06-18 23:12:00,
2013-06-18 19:27:00,58.9,54.0,29.88,NNW,346,0.0,0.0,84,0.00,,,0.04,14,weatherlink.com 1.10,2013-06-18 23:27:00,
2013-06-18 19:42:00,58.7,54.0,29.88,NNW,346,0.0,0.0,84,0.00,,,0.04,16,weatherlink.com 1.10,2013-06-18 23:42:00,
2013-06-18 19:57:00,58.4,54.0,29.88,NNW,346,0.0,0.0,85,0.00,,,0.04,12,weatherlink.com 1.10,2013-06-18 23:57:00,
2013-06-18 20:12:00,58.3,54.0,29.88,NNW,346,0.0,0.0,86,0.00,,,0.04,7,weatherlink.com 1.10,2013-06-19 00:12:00,
2013-06-18 20:27:00,58.0,55.0,29.87,NNW,346,0.0,0.0,88,0.00,,,0.04,11,weatherlink.com 1.10,2013-06-19 00:27:00,
2013-06-18 20:42:00,57.6,54.0,29.87,NNW,346,0.0,0.0,88,0.00,,,0.04,0,weatherlink.com 1.10,2013-06-19 00:42:00,
2013-06-18 20:57:00,57.3,54.0,29.86,NNW,346,0.0,1.0,89,0.00,,,0.04,0,weatherlink.com 1.10,2013-06-19 00:57:00,
2013-06-18 21:12:00,57.2,54.0,29.87,NNW,346,0.0,0.0,89,0.00,,,0.04,0,weatherlink.com 1.10,2013-06-19 01:12:00,
2013-06-18 21:27:00,57.0,54.0,29.88,NNW,346,0.0,0.0,89,0.00,,,0.04,0,weatherlink.com 1.10,2013-06-19 01:27:00,
2013-06-18 21:42:00,56.7,54.0,29.88,NNW,346,0.0,0.0,90,0.00,,,0.04,0,weatherlink.com 1.10,2013-06-19 01:42:00,
2013-06-18 21:57:00,56.5,54.0,29.89,NNW,346,0.0,0.0,90,0.00,,,0.04,0,weatherlink.com 1.10,2013-06-19 01:57:00,
2013-06-18 22:12:00,56.5,54.0,29.89,NNW,346,0.0,0.0,91,0.00,,,0.04,0,weatherlink.com 1.10,2013-06-19 02:12:00,
2013-06-18 22:27:00,56.5,54.0,29.89,NNW,346,0.0,0.0,92,0.00,,,0.04,0,weatherlink.com 1.10,2013-06-19 02:27:00,
2013-06-18 22:42:00,56.5,54.0,29.88,NNW,346,0.0,0.0,92,0.00,,,0.04,0,weatherlink.com 1.10,2013-06-19 02:42:00,
2013-06-18 22:57:00,56.5,54.0,29.87,NNW,346,0.0,0.0,92,0.00,,,0.04,0,weatherlink.com 1.10,2013-06-19 02:57:00,
2013-06-18 23:12:00,56.3,54.0,29.87,NNW,346,0.0,0.0,92,0.00,,,0.04,0,weatherlink.com 1.10,2013-06-19 03:12:00,
2013-06-18 23:27:00,56.3,54.0,29.87,NNW,346,0.0,0.0,93,0.00,,,0.04,0,weatherlink.com 1.10,2013-06-19 03:27:00,
2013-06-18 23:42:00,56.3,54.0,29.87,NNW,346,0.0,1.0,93,0.00,,,0.04,0,weatherlink.com 1.10,2013-06-19 03:42:00,
2013-06-18 23:57:00,56.2,54.0,29.88,NNW,346,0.0,1.0,93,0.00,,,0.04,0,weatherlink.com 1.10,2013-06-19 03:57:00,